Time;durP1;ratioP1;P1;durP2;ratioP2;P2;SDS_P1;SDS_P2;PMS_P1;PMS_P2;Temp;Humidity;BMP_temperature;BMP_pressure;BME280_temperature;BME280_humidity;BME280_pressure;Samples;Min_cycle;Max_cycle;Signal;HPM_P1;HPM_P2
2023/07/19 00:01:30;;;;;;;6.18;2.80;;;;;;;18.26;96.59;101336.16;5261435;28;20044;-76
2023/07/19 00:04:02;;;;;;;5.53;2.45;;;;;;;18.24;96.94;101338.13;5246986;28;20033;-76
2023/07/19 00:06:35;;;;;;;5.57;2.83;;;;;;;18.22;96.97;101335.66;5246643;28;20119;-76
2023/07/19 00:09:06;;;;;;;8.38;2.72;;;;;;;18.15;98.07;101326.72;5243126;28;20021;-77
2023/07/19 00:11:37;;;;;;;6.60;2.65;;;;;;;18.19;97.93;101325.38;5242079;28;20494;-77
2023/07/19 00:14:09;;;;;;;6.30;2.83;;;;;;;18.20;97.18;101331.50;5241174;28;20025;-77
2023/07/19 00:16:40;;;;;;;3.85;2.67;;;;;;;18.11;98.12;101333.34;5243839;28;20111;-76
2023/07/19 00:19:11;;;;;;;7.35;3.08;;;;;;;18.15;98.21;101339.97;5260445;28;20028;-77
2023/07/19 00:21:42;;;;;;;6.72;2.47;;;;;;;18.12;99.68;101327.03;5264727;28;20029;-77
2023/07/19 00:24:14;;;;;;;6.07;2.88;;;;;;;18.16;97.99;101320.41;5266911;28;20044;-76
2023/07/19 00:26:45;;;;;;;4.53;2.78;;;;;;;18.19;97.54;101313.94;5260107;28;20047;-75
2023/07/19 00:29:17;;;;;;;4.93;2.60;;;;;;;18.17;97.81;101316.75;5247003;28;20035;-76
2023/07/19 00:31:48;;;;;;;4.18;2.30;;;;;;;18.06;99.21;101297.72;5261725;28;20020;-77
2023/07/19 00:34:19;;;;;;;5.55;2.20;;;;;;;18.11;99.64;101312.13;5267545;28;20020;-76
2023/07/19 00:36:50;;;;;;;4.72;2.50;;;;;;;18.11;100.00;101308.66;5255835;28;20409;-76
2023/07/19 00:39:22;;;;;;;4.53;2.22;;;;;;;18.07;100.00;101291.41;5255525;28;20024;-77
2023/07/19 00:41:53;;;;;;;3.60;1.92;;;;;;;18.05;100.00;101291.59;5243841;28;20230;-76
2023/07/19 00:44:24;;;;;;;6.38;2.13;;;;;;;18.01;100.00;101290.25;5262609;28;20021;-76
2023/07/19 00:47:00;;;;;;;4.57;2.08;;;;;;;18.12;100.00;101291.75;5260610;28;20498;-77
2023/07/19 00:49:32;;;;;;;4.95;1.98;;;;;;;18.00;100.00;101283.31;5266383;28;20080;-76
2023/07/19 00:52:04;;;;;;;3.88;2.08;;;;;;;18.03;100.00;101290.09;5260120;28;20106;-76
2023/07/19 00:54:36;;;;;;;4.47;2.27;;;;;;;17.93;100.00;101280.50;5261833;28;20550;-77
2023/07/19 00:57:08;;;;;;;4.28;1.95;;;;;;;17.96;100.00;101282.81;5241302;28;20025;-77
2023/07/19 00:59:40;;;;;;;3.50;1.90;;;;;;;17.99;100.00;101292.25;5259812;28;20075;-76
2023/07/19 01:02:13;;;;;;;3.58;2.08;;;;;;;17.94;100.00;101289.28;5262971;28;20103;-76
2023/07/19 01:04:44;;;;;;;4.97;2.25;;;;;;;17.98;100.00;101301.19;5244206;28;20485;-76
2023/07/19 01:07:16;;;;;;;4.55;2.22;;;;;;;17.89;100.00;101279.19;5261830;28;20025;-76
2023/07/19 01:09:49;;;;;;;3.67;2.22;;;;;;;17.87;100.00;101285.63;5259436;28;20107;-76
2023/07/19 01:12:20;;;;;;;3.83;2.10;;;;;;;17.83;100.00;101274.53;5266466;28;20085;-77
2023/07/19 01:14:51;;;;;;;4.22;2.20;;;;;;;17.84;100.00;101280.66;5238658;28;20421;-77
2023/07/19 01:17:22;;;;;;;4.75;2.35;;;;;;;17.80;100.00;101269.56;5266919;28;20418;-76
2023/07/19 01:19:54;;;;;;;4.55;2.33;;;;;;;17.78;100.00;101284.00;5246699;28;20036;-76
2023/07/19 01:22:35;;;;;;;4.22;2.08;;;;;;;17.95;100.00;101280.31;5258160;28;20108;-76
2023/07/19 01:25:06;;;;;;;7.00;2.88;;;;;;;17.72;100.00;101273.00;5268245;28;20437;-76
2023/07/19 01:27:38;;;;;;;4.00;2.58;;;;;;;17.76;100.00;101276.19;5263366;28;20032;-76
2023/07/19 01:30:10;;;;;;;5.22;2.40;;;;;;;17.71;100.00;101260.75;5260025;28;20424;-76
2023/07/19 01:32:42;;;;;;;6.60;2.45;;;;;;;17.72;100.00;101258.94;5268372;28;20367;-76
2023/07/19 01:35:13;;;;;;;4.72;2.28;;;;;;;17.85;100.00;101258.47;5260450;28;20070;-76
2023/07/19 01:37:45;;;;;;;5.60;2.03;;;;;;;17.87;100.00;101257.28;5258868;28;20029;-76
2023/07/19 01:40:16;;;;;;;4.78;2.20;;;;;;;17.82;100.00;101256.16;5254256;28;20158;-76
2023/07/19 01:42:47;;;;;;;5.20;2.50;;;;;;;17.89;100.00;101257.16;5257190;28;20400;-76
2023/07/19 01:45:19;;;;;;;5.22;2.45;;;;;;;17.85;100.00;101250.53;5260120;28;20043;-76
2023/07/19 01:47:50;;;;;;;6.57;2.35;;;;;;;17.89;100.00;101259.81;5257376;28;20028;-75
2023/07/19 01:50:21;;;;;;;5.13;2.13;;;;;;;17.88;100.00;101255.47;5265374;28;20383;-75
2023/07/19 01:52:52;;;;;;;5.40;2.35;;;;;;;17.87;100.00;101254.66;5259844;28;20517;-76
2023/07/19 01:55:24;;;;;;;5.43;2.08;;;;;;;17.98;100.00;101258.78;5266857;28;20083;-76
2023/07/19 01:57:55;;;;;;;7.38;2.55;;;;;;;17.91;100.00;101265.75;5261954;28;20091;-76
2023/07/19 02:00:26;;;;;;;6.40;2.72;;;;;;;17.80;100.00;101264.25;5241520;28;20079;-76
2023/07/19 02:02:58;;;;;;;3.50;1.98;;;;;;;17.80;100.00;101258.97;5237939;28;20033;-76
2023/07/19 02:05:29;;;;;;;5.55;2.85;;;;;;;17.73;100.00;101260.63;5252662;28;20024;-76
2023/07/19 02:08:01;;;;;;;5.07;2.47;;;;;;;17.73;100.00;101260.63;5262202;28;20024;-76
2023/07/19 02:10:32;;;;;;;4.05;2.00;;;;;;;17.70;100.00;101251.16;5262000;28;20094;-76
2023/07/19 02:13:04;;;;;;;5.00;2.67;;;;;;;17.75;100.00;101250.69;5248502;28;20021;-75
2023/07/19 02:15:35;;;;;;;4.72;2.30;;;;;;;17.70;100.00;101248.53;5259599;28;20025;-75
2023/07/19 02:18:06;;;;;;;5.95;2.95;;;;;;;17.72;100.00;101245.69;5259739;28;20036;-76
2023/07/19 02:20:44;;;;;;;4.53;2.65;;;;;;;17.85;100.00;101237.28;5267039;28;20031;-76
2023/07/19 02:23:18;;;;;;;5.35;2.88;;;;;;;17.66;100.00;101233.94;5247801;28;20030;-76
2023/07/19 02:25:49;;;;;;;5.20;2.20;;;;;;;17.61;100.00;101233.59;5261630;28;20040;-75
2023/07/19 02:28:21;;;;;;;6.20;3.10;;;;;;;17.62;100.00;101242.41;5237246;28;20028;-77
2023/07/19 02:30:52;;;;;;;5.10;2.67;;;;;;;17.66;100.00;101243.72;5258038;28;20099;-76
2023/07/19 02:33:23;;;;;;;7.85;2.90;;;;;;;17.63;100.00;101244.06;5239933;28;20113;-75
2023/07/19 02:35:55;;;;;;;5.88;3.42;;;;;;;17.58;100.00;101236.59;5259373;28;20081;-77
2023/07/19 02:38:27;;;;;;;4.38;3.20;;;;;;;17.60;100.00;101229.31;5244031;28;20036;-76
2023/07/19 02:40:59;;;;;;;5.97;2.90;;;;;;;17.61;100.00;101230.94;5259959;28;20430;-76
2023/07/19 02:43:31;;;;;;;3.97;2.65;;;;;;;17.59;100.00;101234.78;5237805;28;20108;-76
2023/07/19 02:46:02;;;;;;;6.63;3.03;;;;;;;17.57;100.00;101245.53;5261299;28;20107;-76
2023/07/19 02:48:33;;;;;;;7.03;2.83;;;;;;;17.67;100.00;101243.53;5258691;28;20291;-75
2023/07/19 02:51:04;;;;;;;5.05;3.00;;;;;;;17.69;100.00;101248.66;5257865;28;20021;-76
2023/07/19 02:53:37;;;;;;;6.65;2.88;;;;;;;17.70;100.00;101240.56;5247939;28;20020;-77
2023/07/19 02:56:08;;;;;;;4.65;2.53;;;;;;;17.71;100.00;101238.75;5238434;28;20509;-76
2023/07/19 02:58:39;;;;;;;5.85;3.10;;;;;;;17.73;100.00;101242.91;5259088;28;20060;-75
2023/07/19 03:01:14;;;;;;;4.85;2.72;;;;;;;17.73;100.00;101242.91;5259125;28;20029;-76
2023/07/19 03:03:45;;;;;;;6.22;2.97;;;;;;;17.68;100.00;101239.91;5268742;28;20039;-76
2023/07/19 03:06:17;;;;;;;5.88;2.95;;;;;;;17.64;100.00;101225.31;5255834;28;20731;-75
2023/07/19 03:08:49;;;;;;;4.28;2.90;;;;;;;17.69;100.00;101233.63;5243314;28;20036;-76
2023/07/19 03:11:20;;;;;;;5.57;2.95;;;;;;;17.75;100.00;101248.03;5268448;28;20991;-77
2023/07/19 03:13:51;;;;;;;4.97;3.10;;;;;;;17.53;100.00;101220.38;5247929;28;20009;-75
2023/07/19 03:16:23;;;;;;;5.25;2.67;;;;;;;17.71;100.00;101244.88;5259825;28;20733;-76
2023/07/19 03:18:54;;;;;;;4.53;2.78;;;;;;;17.68;100.00;101237.25;5265444;28;20608;-76
2023/07/19 03:21:25;;;;;;;5.63;3.00;;;;;;;17.71;100.00;101238.75;5262844;28;20021;-78
2023/07/19 03:23:56;;;;;;;6.93;3.22;;;;;;;17.69;100.00;101249.53;5260537;28;20037;-77
2023/07/19 03:26:28;;;;;;;6.22;3.25;;;;;;;17.74;100.00;101247.19;5265316;28;20024;-76
2023/07/19 03:28:59;;;;;;;3.45;2.63;;;;;;;17.64;100.00;101240.41;5262859;28;20107;-77
2023/07/19 03:31:30;;;;;;;5.95;3.03;;;;;;;17.66;100.00;101255.16;5265407;28;20028;-77
2023/07/19 03:34:02;;;;;;;7.22;3.17;;;;;;;17.64;100.00;101249.19;5265790;28;20048;-77
2023/07/19 03:36:33;;;;;;;5.85;3.33;;;;;;;17.62;100.00;101245.88;5265655;28;20070;-76
2023/07/19 03:39:05;;;;;;;4.50;3.08;;;;;;;17.64;100.00;101256.28;5262656;28;20103;-77
2023/07/19 03:41:36;;;;;;;7.30;3.08;;;;;;;17.69;100.00;101248.66;5268495;28;20401;-76
2023/07/19 03:44:07;;;;;;;6.57;3.28;;;;;;;17.69;100.00;101253.97;5260459;28;20029;-76
2023/07/19 03:46:38;;;;;;;5.35;3.25;;;;;;;17.60;100.00;101258.44;5263374;28;20028;-76
2023/07/19 03:49:10;;;;;;;4.63;3.25;;;;;;;17.66;100.00;101259.63;5267777;28;20035;-76
2023/07/19 03:51:42;;;;;;;5.13;3.50;;;;;;;17.70;100.00;101256.47;5262146;28;20100;-76
2023/07/19 03:54:13;;;;;;;6.32;3.83;;;;;;;17.71;100.00;101260.75;5265110;28;20016;-77
2023/07/19 03:56:45;;;;;;;5.07;3.45;;;;;;;17.71;100.00;101249.34;5261504;28;20068;-77
2023/07/19 03:59:17;;;;;;;6.07;3.42;;;;;;;17.74;100.00;101255.13;5266566;28;20168;-76
2023/07/19 04:01:48;;;;;;;7.18;3.42;;;;;;;17.73;100.00;101250.84;5246802;28;20035;-77
2023/07/19 04:04:19;;;;;;;6.75;3.45;;;;;;;17.77;100.00;101254.03;5264866;28;20108;-75
2023/07/19 04:06:50;;;;;;;5.20;3.47;;;;;;;17.75;100.00;101266.59;5262299;28;20055;-76
2023/07/19 04:09:22;;;;;;;6.93;3.72;;;;;;;17.80;100.00;101261.59;5261432;28;20025;-76
2023/07/19 04:11:53;;;;;;;6.33;3.23;;;;;;;17.78;100.00;101254.84;5249070;28;20037;-76
2023/07/19 04:14:24;;;;;;;5.93;3.97;;;;;;;17.77;100.00;101261.13;5263706;28;20294;-77
2023/07/19 04:16:56;;;;;;;7.40;3.95;;;;;;;17.75;100.00;101254.16;5246428;28;20055;-76
2023/07/19 04:19:27;;;;;;;6.18;3.85;;;;;;;17.76;100.00;101255.00;5265683;28;20031;-77
2023/07/19 04:21:59;;;;;;;5.70;4.32;;;;;;;17.74;100.00;101249.00;5262221;28;20033;-76
2023/07/19 04:24:30;;;;;;;8.93;4.30;;;;;;;17.72;100.00;101243.03;5262150;28;20075;-76
2023/07/19 04:27:01;;;;;;;7.25;3.83;;;;;;;17.82;100.00;101249.03;5259981;28;20037;-76
2023/07/19 04:29:33;;;;;;;7.60;4.38;;;;;;;17.86;100.00;101254.81;5258103;28;20020;-76
2023/07/19 04:32:04;;;;;;;6.60;3.83;;;;;;;17.85;100.00;101247.88;5259907;28;20473;-77
2023/07/19 04:34:35;;;;;;;12.50;4.30;;;;;;;17.92;100.00;101251.53;5257266;28;20024;-76
2023/07/19 04:37:07;;;;;;;5.63;3.70;;;;;;;17.96;100.00;101261.59;5258705;28;20063;-76
2023/07/19 04:39:38;;;;;;;7.85;3.72;;;;;;;17.93;100.00;101250.50;5265063;28;20095;-76
2023/07/19 04:42:09;;;;;;;6.38;4.00;;;;;;;17.96;100.00;101266.91;5266753;28;20104;-76
2023/07/19 04:44:40;;;;;;;5.88;3.97;;;;;;;17.99;100.00;101268.38;5262435;28;20128;-76
2023/07/19 04:47:12;;;;;;;6.00;3.92;;;;;;;18.02;100.00;101261.91;5258979;28;20025;-76
2023/07/19 04:49:43;;;;;;;4.47;3.72;;;;;;;18.07;100.00;101268.38;5260456;28;20042;-76
2023/07/19 04:52:15;;;;;;;6.43;3.97;;;;;;;18.05;100.00;101262.41;5264473;28;20115;-76
2023/07/19 04:54:48;;;;;;;8.15;4.43;;;;;;;18.00;100.00;101264.75;5260979;28;20040;-76
2023/07/19 04:57:19;;;;;;;5.65;3.72;;;;;;;18.00;100.00;101270.06;5262737;28;20560;-75
2023/07/19 04:59:51;;;;;;;7.03;4.40;;;;;;;17.94;100.00;101268.06;5266490;28;20062;-76
2023/07/19 05:02:22;;;;;;;6.03;3.60;;;;;;;18.07;100.00;101279.00;5259075;28;20033;-76
2023/07/19 05:04:53;;;;;;;5.40;3.80;;;;;;;18.08;100.00;101285.13;5262885;28;20124;-76
2023/07/19 05:07:24;;;;;;;8.65;4.43;;;;;;;18.06;100.00;101265.88;5240894;28;20078;-76
2023/07/19 05:09:56;;;;;;;5.22;3.85;;;;;;;18.23;100.00;101278.94;5253114;28;20685;-76
2023/07/19 05:12:27;;;;;;;6.80;4.20;;;;;;;18.18;100.00;101270.69;5260475;28;20037;-76
2023/07/19 05:14:58;;;;;;;8.48;4.18;;;;;;;18.27;100.00;101271.47;5260970;28;20463;-75
2023/07/19 05:17:30;;;;;;;6.50;4.07;;;;;;;18.33;100.00;101270.78;5258505;28;20399;-76
2023/07/19 05:20:01;;;;;;;6.10;4.25;;;;;;;18.35;100.00;101265.31;5248883;28;20029;-77
2023/07/19 05:22:33;;;;;;;6.50;4.05;;;;;;;18.40;100.00;101266.47;5260248;28;20064;-76
2023/07/19 05:25:04;;;;;;;8.10;4.25;;;;;;;18.48;100.00;101274.38;5259308;28;20156;-75
2023/07/19 05:27:36;;;;;;;6.82;4.32;;;;;;;18.58;100.00;101279.50;5238322;28;20028;-75
2023/07/19 05:30:07;;;;;;;7.45;4.88;;;;;;;18.67;100.00;101277.63;5262016;28;20394;-76
2023/07/19 05:32:39;;;;;;;6.03;4.40;;;;;;;18.69;100.00;101265.03;5258105;28;20122;-75
2023/07/19 05:35:10;;;;;;;7.70;4.30;;;;;;;18.75;100.00;101255.56;5266390;28;20080;-76
2023/07/19 05:37:42;;;;;;;9.38;4.32;;;;;;;18.85;100.00;101269.47;5263693;28;20475;-76
2023/07/19 05:40:13;;;;;;;8.23;4.20;;;;;;;18.89;100.00;101258.31;5258230;28;20456;-76
2023/07/19 05:42:45;;;;;;;8.10;3.75;;;;;;;19.00;100.00;101259.75;5244696;28;20382;-76
2023/07/19 05:45:16;;;;;;;6.10;4.22;;;;;;;19.00;100.00;101253.63;5262512;28;20039;-76
2023/07/19 05:47:48;;;;;;;6.73;4.00;;;;;;;19.08;100.00;101257.03;5258424;28;20347;-76
2023/07/19 05:50:19;;;;;;;7.85;4.63;;;;;;;19.11;100.00;101247.91;5260660;28;20021;-75
2023/07/19 05:52:50;;;;;;;7.38;4.53;;;;;;;19.26;100.00;101263.91;5258365;28;20115;-75
2023/07/19 05:55:21;;;;;;;6.38;4.40;;;;;;;19.33;100.00;101262.19;5241401;28;20072;-76
2023/07/19 05:57:53;;;;;;;8.70;4.65;;;;;;;19.42;100.00;101261.13;5259305;28;20034;-76
2023/07/19 06:00:28;;;;;;;7.53;4.85;;;;;;;19.48;100.00;101268.41;5261473;28;20040;-76
2023/07/19 06:02:59;;;;;;;8.05;4.88;;;;;;;19.48;100.00;101264.91;5259571;28;20029;-76
2023/07/19 06:05:30;;;;;;;8.35;4.47;;;;;;;19.57;100.00;101264.66;5260661;28;20067;-76
2023/07/19 06:08:02;;;;;;;10.10;4.90;;;;;;;19.56;100.00;101257.69;5242523;28;20029;-76
2023/07/19 06:10:33;;;;;;;5.65;4.43;;;;;;;19.63;100.00;101261.31;5238911;28;20025;-76
2023/07/19 06:13:05;;;;;;;8.60;4.47;;;;;;;19.68;100.00;101271.41;5241715;28;20033;-76
2023/07/19 06:15:36;;;;;;;9.00;5.23;;;;;;;19.77;100.00;101270.31;5241304;28;20385;-75
2023/07/19 06:18:07;;;;;;;10.00;5.10;;;;;;;19.90;100.00;101262.56;5248079;28;20055;-76
2023/07/19 06:20:39;;;;;;;10.67;4.60;;;;;;;19.99;100.00;101262.47;5256998;28;20041;-76
2023/07/19 06:23:10;;;;;;;8.27;4.40;;;;;;;20.12;100.00;101271.50;5246852;28;20032;-76
2023/07/19 06:25:42;;;;;;;8.77;4.67;;;;;;;20.16;100.00;101256.81;5261295;28;20187;-76
2023/07/19 06:28:13;;;;;;;10.35;4.85;;;;;;;20.21;99.15;101264.25;5261225;28;20036;-77
2023/07/19 06:30:45;;;;;;;8.93;4.67;;;;;;;20.27;99.81;101260.88;5263053;28;20048;-75
2023/07/19 06:33:16;;;;;;;8.00;4.03;;;;;;;20.30;99.83;101259.66;5260489;28;20021;-76
2023/07/19 06:35:47;;;;;;;10.02;4.65;;;;;;;20.29;98.86;101250.03;5252430;28;20033;-76
2023/07/19 06:38:19;;;;;;;10.85;4.80;;;;;;;20.35;95.53;101254.63;5262448;28;20833;-75
2023/07/19 06:40:50;;;;;;;8.52;4.55;;;;;;;20.31;95.83;101259.47;5262161;28;20033;-76
2023/07/19 06:43:21;;;;;;;11.63;5.47;;;;;;;20.32;95.17;101262.97;5262667;28;20025;-76
2023/07/19 06:45:53;;;;;;;7.33;4.87;;;;;;;20.41;96.87;101264.50;5255700;28;20029;-76
2023/07/19 06:48:24;;;;;;;10.05;4.88;;;;;;;20.50;95.53;101262.63;5263795;28;20024;-76
2023/07/19 06:50:56;;;;;;;10.18;4.43;;;;;;;20.67;95.87;101265.91;5259506;28;20032;-76
2023/07/19 06:53:28;;;;;;;6.78;4.22;;;;;;;20.77;94.69;101264.59;5256591;28;20116;-76
2023/07/19 06:55:59;;;;;;;9.30;4.90;;;;;;;20.91;92.57;101265.59;5241928;28;20512;-76
2023/07/19 06:58:31;;;;;;;9.63;5.07;;;;;;;21.07;92.17;101268.00;5265629;28;20047;-77
2023/07/19 07:01:02;;;;;;;10.97;4.43;;;;;;;21.18;89.56;101266.69;5254919;28;20376;-77
2023/07/19 07:03:34;;;;;;;8.10;4.73;;;;;;;21.41;90.99;101265.72;5259026;28;20020;-75
2023/07/19 07:06:05;;;;;;;7.53;4.38;;;;;;;21.43;87.05;101264.47;5259627;28;20052;-76
2023/07/19 07:08:37;;;;;;;7.87;4.20;;;;;;;21.62;87.84;101268.34;5261910;28;20417;-76
2023/07/19 07:11:08;;;;;;;6.60;4.20;;;;;;;21.84;85.60;101274.47;5242225;28;20033;-76
2023/07/19 07:13:40;;;;;;;7.37;4.13;;;;;;;21.94;84.60;101277.63;5258327;28;20025;-77
2023/07/19 07:16:12;;;;;;;8.52;3.70;;;;;;;21.87;81.94;101274.09;5256320;28;20398;-76
2023/07/19 07:18:44;;;;;;;5.33;3.57;;;;;;;21.94;83.27;101276.81;5262795;28;20024;-76
2023/07/19 07:21:16;;;;;;;7.35;3.97;;;;;;;21.98;80.53;101267.41;5261290;28;20763;-76
2023/07/19 07:23:47;;;;;;;8.50;3.90;;;;;;;22.03;80.16;101271.13;5242677;28;20041;-76
2023/07/19 07:26:19;;;;;;;7.17;3.60;;;;;;;22.14;80.71;101283.13;5239784;28;20033;-75
2023/07/19 07:28:51;;;;;;;6.53;3.92;;;;;;;22.13;79.86;101268.13;5258335;28;20587;-76
2023/07/19 07:31:22;;;;;;;8.07;4.03;;;;;;;22.15;81.99;101267.94;5246698;28;20040;-75
2023/07/19 07:33:53;;;;;;;7.80;3.40;;;;;;;22.16;81.19;101266.91;5262706;28;20020;-76
2023/07/19 07:36:24;;;;;;;8.20;3.37;;;;;;;22.15;77.94;101267.94;5237933;28;20044;-75
2023/07/19 07:38:56;;;;;;;7.03;3.50;;;;;;;22.19;75.85;101258.50;5259454;28;20033;-76
2023/07/19 07:41:27;;;;;;;7.37;3.63;;;;;;;22.29;77.64;101261.66;5259657;28;20020;-76
2023/07/19 07:43:59;;;;;;;7.27;3.30;;;;;;;22.36;76.67;101259.03;5259279;28;20055;-76
2023/07/19 07:46:30;;;;;;;7.40;3.37;;;;;;;22.41;75.43;101265.41;5263810;28;20029;-76
2023/07/19 07:49:01;;;;;;;7.47;3.20;;;;;;;22.29;74.61;101249.13;5262193;28;20060;-76
2023/07/19 07:51:33;;;;;;;6.33;3.03;;;;;;;22.41;78.11;101268.09;5264922;28;20202;-75
2023/07/19 07:54:04;;;;;;;7.57;3.00;;;;;;;22.45;73.63;101266.66;5262422;28;20033;-76
2023/07/19 07:56:35;;;;;;;5.33;3.00;;;;;;;22.45;73.26;101268.50;5229185;28;20094;-76
2023/07/19 07:59:07;;;;;;;6.03;2.73;;;;;;;22.51;71.54;101263.22;5263234;28;20048;-76
2023/07/19 08:01:38;;;;;;;10.60;3.17;;;;;;;22.65;70.55;101264.06;5261077;28;20013;-75
2023/07/19 08:04:11;;;;;;;4.33;2.47;;;;;;;22.53;67.57;101261.16;5270087;28;20024;-77
2023/07/19 08:06:42;;;;;;;;;;;;;;;23.28;65.16;101261.19;5257472;28;20063;-77
2023/07/19 08:09:13;;;;;;;5.80;2.40;;;;;;;22.54;67.69;101251.28;5265145;28;19920;-76
2023/07/19 08:11:45;;;;;;;3.80;2.27;;;;;;;22.82;68.31;101251.22;5264048;28;20060;-76
2023/07/19 08:14:16;;;;;;;6.63;2.97;;;;;;;22.88;65.01;101247.75;5255508;28;20029;-75
2023/07/19 08:16:50;;;;;;;7.40;3.40;;;;;;;23.15;65.40;101248.66;5258459;28;20099;-77
2023/07/19 08:19:21;;;;;;;5.70;3.28;;;;;;;23.28;64.91;101247.84;5258051;28;20036;-76
2023/07/19 08:21:56;;;;;;;7.37;3.23;;;;;;;23.42;61.13;101235.31;5244888;28;20020;-75
2023/07/19 08:24:28;;;;;;;5.57;3.05;;;;;;;23.51;60.92;101231.38;5260878;28;20595;-76
2023/07/19 08:26:59;;;;;;;6.60;3.07;;;;;;;23.58;58.72;101236.75;5265440;28;20021;-75
2023/07/19 08:29:30;;;;;;;5.30;2.60;;;;;;;23.63;58.39;101244.97;5257831;28;20044;-76
2023/07/19 08:32:03;;;;;;;9.03;2.37;;;;;;;23.55;57.68;101240.66;5262315;28;20029;-77
2023/07/19 08:34:34;;;;;;;7.40;2.63;;;;;;;23.46;58.55;101239.22;5244928;28;20053;-76
2023/07/19 08:37:05;;;;;;;6.90;2.87;;;;;;;23.32;59.26;101243.72;5245757;28;20115;-77
2023/07/19 08:39:37;;;;;;;6.53;2.63;;;;;;;23.35;60.49;101255.88;5258994;28;20036;-76
2023/07/19 08:42:08;;;;;;;6.07;2.50;;;;;;;23.21;62.95;101239.81;5244231;28;20048;-75
2023/07/19 08:44:39;;;;;;;5.33;2.57;;;;;;;23.23;63.85;101240.44;5243728;28;20032;-76
2023/07/19 08:47:12;;;;;;;6.03;2.80;;;;;;;23.34;63.96;101240.88;5266650;28;20021;-77
2023/07/19 08:49:45;;;;;;;6.15;2.42;;;;;;;23.48;62.29;101245.97;5262186;28;20028;-76
2023/07/19 08:52:17;;;;;;;9.85;2.55;;;;;;;23.47;60.45;101240.84;5254563;28;20029;-76
2023/07/19 08:54:48;;;;;;;7.50;2.37;;;;;;;23.51;59.59;101244.75;5237434;28;20026;-76
2023/07/19 08:57:20;;;;;;;9.73;2.77;;;;;;;23.58;59.17;101244.78;5255845;28;20029;-76
2023/07/19 08:59:51;;;;;;;7.00;2.57;;;;;;;23.77;58.09;101247.47;5264221;28;20028;-76
2023/07/19 09:02:22;;;;;;;6.53;2.93;;;;;;;23.81;58.26;101239.84;5255289;28;20036;-76
2023/07/19 09:05:04;;;;;;;6.67;2.90;;;;;;;24.30;57.83;101243.84;5238583;28;20394;-76
2023/07/19 09:07:37;;;;;;;6.80;2.92;;;;;;;24.41;58.83;101240.53;5259717;28;20102;-76
2023/07/19 09:10:10;;;;;;;5.82;2.53;;;;;;;24.33;57.35;101237.25;5238851;28;20394;-78
2023/07/19 09:12:45;;;;;;;6.28;2.50;;;;;;;24.55;56.29;101244.00;5240283;28;20028;-77
2023/07/19 09:15:16;;;;;;;4.75;2.28;;;;;;;24.52;56.76;101249.78;5262019;28;20628;-78
2023/07/19 09:17:48;;;;;;;5.80;2.80;;;;;;;24.42;56.76;101254.75;5262812;28;20029;-76
2023/07/19 09:20:20;;;;;;;4.57;2.65;;;;;;;24.48;57.68;101251.25;5267012;28;20393;-76
2023/07/19 09:22:51;;;;;;;5.30;2.60;;;;;;;24.46;57.25;101248.75;5257810;28;20057;-77
2023/07/19 09:25:22;;;;;;;6.30;2.73;;;;;;;24.57;58.89;101249.13;5256384;28;20112;-76
2023/07/19 09:27:54;;;;;;;6.33;2.90;;;;;;;24.61;56.92;101239.63;5258526;28;20168;-76
2023/07/19 09:30:25;;;;;;;6.33;2.90;;;;;;;24.66;56.45;101245.16;5252942;28;20039;-76
2023/07/19 09:33:00;;;;;;;5.93;2.43;;;;;;;24.73;55.00;101245.97;5257193;28;20696;-76
2023/07/19 09:35:31;;;;;;;4.57;2.30;;;;;;;24.83;53.78;101243.66;5245922;28;20371;-76
2023/07/19 09:38:02;;;;;;;3.60;1.80;;;;;;;24.86;54.56;101251.25;5257854;28;20021;-76
2023/07/19 09:40:34;;;;;;;5.17;2.17;;;;;;;24.85;54.60;101244.28;5255356;28;20024;-77
2023/07/19 09:43:05;;;;;;;9.27;2.30;;;;;;;24.86;55.72;101248.59;5257088;28;20024;-77
2023/07/19 09:45:40;;;;;;;4.47;2.17;;;;;;;24.72;55.00;101244.31;5244896;28;20043;-78
2023/07/19 09:48:12;;;;;;;6.95;2.30;;;;;;;24.63;55.47;101246.44;5243309;28;20052;-76
2023/07/19 09:50:47;;;;;;;4.82;2.40;;;;;;;24.76;54.72;101248.22;5267967;28;20058;-78
2023/07/19 09:53:23;;;;;;;9.57;2.95;;;;;;;24.71;56.92;101240.00;5258988;28;20035;-77
2023/07/19 09:55:54;;;;;;;7.68;2.42;;;;;;;24.61;56.24;101247.66;5266942;28;20024;-77
2023/07/19 09:58:28;;;;;;;7.05;2.70;;;;;;;24.46;55.73;101238.03;5266026;28;20508;-77
2023/07/19 10:00:59;;;;;;;5.25;2.03;;;;;;;24.55;56.92;101224.41;5252592;28;20028;-76
2023/07/19 10:03:35;;;;;;;4.40;2.00;;;;;;;24.85;56.44;101243.41;5262497;28;20431;-77
2023/07/19 10:06:07;;;;;;;3.67;1.80;;;;;;;24.69;56.61;101239.38;5258006;28;20031;-77
2023/07/19 10:08:39;;;;;;;4.80;2.13;;;;;;;24.72;55.80;101242.47;5261165;28;20135;-76
2023/07/19 10:11:21;;;;;;;5.33;2.03;;;;;;;25.05;54.20;101251.38;5262996;28;20025;-77
2023/07/19 10:13:56;;;;;;;6.63;2.27;;;;;;;24.82;53.71;101243.88;5259292;28;20479;-77
2023/07/19 10:16:35;;;;;;;4.93;1.92;;;;;;;24.84;55.20;101247.16;5258484;28;20056;-76
2023/07/19 10:19:20;;;;;;;6.10;1.70;;;;;;;25.10;55.58;101246.19;5237926;28;20029;-77
2023/07/19 10:22:01;;;;;;;3.60;1.63;;;;;;;25.17;54.92;101236.25;5258359;28;20025;-76
2023/07/19 10:24:35;;;;;;;5.25;2.10;;;;;;;25.02;54.12;101249.09;5231935;28;20124;-76
2023/07/19 10:27:08;;;;;;;4.05;1.80;;;;;;;24.98;52.20;101246.84;5224959;28;20394;-76
2023/07/19 10:29:44;;;;;;;3.65;1.63;;;;;;;24.94;50.75;101244.81;5261657;28;20024;-78
2023/07/19 10:32:15;;;;;;;4.15;1.73;;;;;;;24.87;50.45;101244.84;5261911;28;20028;-77
2023/07/19 10:34:49;;;;;;;3.47;1.40;;;;;;;25.12;52.16;101244.94;5259270;28;20501;-76
2023/07/19 10:37:20;;;;;;;5.57;1.58;;;;;;;25.22;50.51;101233.72;5257790;28;20306;-77
2023/07/19 10:39:52;;;;;;;3.93;1.30;;;;;;;25.22;50.58;101244.47;5258400;28;20027;-77
2023/07/19 10:42:23;;;;;;;3.90;1.77;;;;;;;25.26;49.63;101247.53;5261468;28;20033;-76
2023/07/19 10:44:56;;;;;;;3.63;1.70;;;;;;;25.22;49.50;101245.28;5258127;28;20025;-77
2023/07/19 10:47:27;;;;;;;4.80;2.22;;;;;;;25.14;49.30;101240.19;5261082;28;20020;-77
2023/07/19 10:49:59;;;;;;;3.57;1.10;;;;;;;25.18;50.22;101243.25;5241382;28;20059;-77
2023/07/19 10:52:30;;;;;;;2.73;1.50;;;;;;;25.28;49.28;101245.47;5262248;28;20554;-77
2023/07/19 10:55:01;;;;;;;4.70;2.07;;;;;;;25.39;49.96;101242.06;5264302;28;20033;-77
2023/07/19 10:57:32;;;;;;;6.50;1.93;;;;;;;25.34;50.50;101240.03;5258748;28;20032;-77
2023/07/19 11:00:12;;;;;;;3.47;1.40;;;;;;;25.47;50.40;101239.94;5259391;28;20039;-77
2023/07/19 11:02:43;;;;;;;4.88;1.75;;;;;;;24.91;51.48;101245.25;5257556;28;20467;-77
2023/07/19 11:05:15;;;;;;;5.00;1.80;;;;;;;24.60;64.01;101248.72;5240657;28;20078;-77
2023/07/19 11:07:49;;;;;;;5.70;1.70;;;;;;;24.28;78.38;101256.59;5260521;28;20029;-77
2023/07/19 11:10:21;;;;;;;3.28;1.40;;;;;;;24.22;78.63;101244.91;5260972;28;20052;-76
2023/07/19 11:12:52;;;;;;;3.60;1.63;;;;;;;24.54;88.41;101231.63;5242374;28;20021;-77
2023/07/19 11:15:27;;;;;;;3.10;1.47;;;;;;;24.80;77.38;101228.00;5268497;28;20278;-77
2023/07/19 11:17:58;;;;;;;4.78;1.40;;;;;;;24.73;77.36;101240.59;5251226;28;20036;-78
2023/07/19 11:20:31;;;;;;;4.23;1.50;;;;;;;25.03;69.12;101234.66;5254308;28;20398;-77
2023/07/19 11:23:08;;;;;;;6.78;1.60;;;;;;;25.40;71.79;101233.81;5261502;28;20028;-77
2023/07/19 11:25:40;;;;;;;3.95;1.10;;;;;;;25.30;66.14;101236.13;5240599;28;20037;-76
2023/07/19 11:28:13;;;;;;;5.57;1.50;;;;;;;25.26;62.00;101226.88;5262414;28;20036;-79
2023/07/19 11:30:44;;;;;;;2.63;1.00;;;;;;;25.13;61.24;101216.28;5265588;28;20100;-77
2023/07/19 11:33:16;;;;;;;4.43;1.53;;;;;;;25.38;63.42;101221.63;5256863;28;20029;-78
2023/07/19 11:35:51;;;;;;;4.20;1.83;;;;;;;25.85;59.81;101225.59;5257577;28;20028;-78
2023/07/19 11:38:24;;;;;;;4.55;1.45;;;;;;;25.89;57.29;101213.34;5262648;28;20074;-77
2023/07/19 11:40:55;;;;;;;3.75;1.30;;;;;;;26.00;55.18;101202.94;5263848;28;20094;-76
2023/07/19 11:43:26;;;;;;;2.70;1.10;;;;;;;26.13;51.56;101224.25;5261734;28;20449;-75